createdAt,value
2023-04-11T00:02:17.082Z,95.81
2023-04-11T00:04:46.495Z,94.66
2023-04-11T00:07:14.482Z,93.62
2023-04-11T00:09:42.379Z,95.00
2023-04-11T00:12:10.302Z,95.48
2023-04-11T00:14:38.320Z,96.08
2023-04-11T00:17:06.232Z,96.60
2023-04-11T00:19:34.491Z,96.08
2023-04-11T00:22:05.098Z,96.12
2023-04-11T00:24:33.031Z,95.12
2023-04-11T00:27:01.504Z,95.40
2023-04-11T00:29:29.449Z,94.86
2023-04-11T00:31:57.386Z,95.24
2023-04-11T00:34:25.768Z,95.59
2023-04-11T00:36:53.698Z,95.13
2023-04-11T00:39:23.490Z,94.52
2023-04-11T00:41:51.388Z,94.00
2023-04-11T00:44:19.304Z,94.14
2023-04-11T00:46:47.771Z,95.16
2023-04-11T00:49:15.748Z,96.08
2023-04-11T00:51:43.789Z,95.64
2023-04-11T00:54:12.183Z,95.32
2023-04-11T00:56:41.594Z,96.26
2023-04-11T00:59:10.345Z,96.58
2023-04-11T01:01:40.175Z,96.53
2023-04-11T01:04:08.276Z,97.29
2023-04-11T01:06:37.346Z,97.23
2023-04-11T01:09:06.348Z,98.06
2023-04-11T01:11:35.361Z,98.63
2023-04-11T01:14:05.140Z,98.63
2023-04-11T01:16:33.112Z,98.48
2023-04-11T01:19:01.072Z,99.48
2023-04-11T01:21:29.781Z,99.06
2023-04-11T01:24:03.646Z,99.12
2023-04-11T01:26:31.604Z,99.60
2023-04-11T01:28:59.502Z,100.00
2023-04-11T01:31:27.420Z,100.00
2023-04-11T01:33:55.663Z,100.00
2023-04-11T01:36:23.626Z,100.00
2023-04-11T01:38:51.614Z,100.00
2023-04-11T01:41:22.487Z,100.00
2023-04-11T01:43:50.875Z,100.00
2023-04-11T01:46:18.807Z,100.00
2023-04-11T01:48:46.969Z,100.00
2023-04-11T01:51:14.919Z,100.00
2023-04-11T01:53:42.804Z,100.00
2023-04-11T01:56:11.898Z,100.00
2023-04-11T01:58:41.284Z,99.93
2023-04-11T02:01:09.288Z,99.89
2023-04-11T02:03:37.728Z,99.28
2023-04-11T02:06:06.506Z,98.52
2023-04-11T02:08:34.409Z,98.14
2023-04-11T02:11:02.316Z,98.84
2023-04-11T02:13:30.344Z,98.45
2023-04-11T02:15:59.721Z,98.15
2023-04-11T02:18:27.677Z,99.16
2023-04-11T02:20:55.807Z,99.47
2023-04-11T02:23:24.241Z,99.78
2023-04-11T02:25:52.283Z,99.60
2023-04-11T02:28:20.187Z,99.71
2023-04-11T02:30:48.167Z,99.66
2023-04-11T02:33:17.575Z,98.81
2023-04-11T02:35:45.960Z,99.92
2023-04-11T02:38:13.951Z,99.79
2023-04-11T02:40:42.006Z,99.45
2023-04-11T02:43:10.071Z,100.00
2023-04-11T02:45:38.013Z,100.00
2023-04-11T02:48:06.773Z,100.00
2023-04-11T02:50:36.174Z,99.53
2023-04-11T02:53:04.087Z,99.53
2023-04-11T02:55:31.940Z,99.58
2023-04-11T02:57:59.859Z,100.00
2023-04-11T03:00:27.892Z,100.00
2023-04-11T03:02:57.058Z,99.21
2023-04-11T03:05:25.110Z,100.00
2023-04-11T03:07:54.510Z,99.43
2023-04-11T03:10:22.438Z,98.25
2023-04-11T03:12:50.374Z,98.23
2023-04-11T03:15:18.393Z,97.53
2023-04-11T03:17:46.418Z,96.59
2023-04-11T03:20:20.248Z,97.89
2023-04-11T03:22:48.584Z,96.85
2023-04-11T03:25:17.893Z,96.83
2023-04-11T03:27:45.803Z,97.79
2023-04-11T03:30:15.393Z,97.77
2023-04-11T03:32:43.368Z,97.05
2023-04-11T03:35:11.667Z,96.93
2023-04-11T03:37:39.560Z,96.22
2023-04-11T03:40:09.086Z,97.11
2023-04-11T03:42:38.417Z,97.18
2023-04-11T03:45:07.520Z,96.38
2023-04-11T03:47:35.732Z,98.50
2023-04-11T03:50:04.010Z,96.62
2023-04-11T03:52:31.918Z,96.52
2023-04-11T03:54:59.834Z,96.24
2023-04-11T03:57:28.163Z,97.48
2023-04-11T03:59:57.981Z,96.59
2023-04-11T04:02:26.474Z,95.82
2023-04-11T04:04:58.827Z,96.39
2023-04-11T04:07:27.575Z,95.70
2023-04-11T04:09:55.633Z,95.99
2023-04-11T04:12:23.582Z,95.19
2023-04-11T04:14:51.451Z,95.95
2023-04-11T04:17:20.797Z,95.87
2023-04-11T04:19:49.677Z,95.52
2023-04-11T04:22:17.868Z,94.97
2023-04-11T04:24:47.698Z,95.39
2023-04-11T04:27:18.261Z,95.56
2023-04-11T04:30:02.467Z,94.57
2023-04-11T04:32:33.209Z,94.33
2023-04-11T04:35:01.678Z,95.02
2023-04-11T04:37:30.105Z,95.28
2023-04-11T04:40:02.381Z,95.01
2023-04-11T04:42:31.181Z,94.84
2023-04-11T04:44:59.287Z,95.04
2023-04-11T04:47:31.827Z,92.24
2023-04-11T04:50:01.485Z,93.82
2023-04-11T04:52:30.710Z,88.43
2023-04-11T04:54:59.353Z,92.77
2023-04-11T04:57:27.414Z,93.50
2023-04-11T04:59:55.664Z,92.65
2023-04-11T05:02:25.670Z,93.50
2023-04-11T05:04:54.161Z,93.63
2023-04-11T05:07:23.627Z,93.94
2023-04-11T05:09:51.549Z,93.48
2023-04-11T05:12:26.381Z,92.95
2023-04-11T05:14:56.728Z,93.40
2023-04-11T05:17:25.446Z,93.92
2023-04-11T05:19:53.634Z,93.18
2023-04-11T05:22:22.930Z,93.25
2023-04-11T05:24:50.823Z,92.35
2023-04-11T05:27:19.392Z,92.50
2023-04-11T05:29:47.451Z,92.47
2023-04-11T05:32:15.434Z,91.35
2023-04-11T05:34:52.854Z,91.94
2023-04-11T05:37:21.151Z,92.55
2023-04-11T05:39:50.431Z,92.62
2023-04-11T05:42:18.763Z,91.86
2023-04-11T05:44:46.670Z,91.86
2023-04-11T05:47:14.573Z,92.04
2023-04-11T05:49:42.490Z,92.22
2023-04-11T05:52:10.425Z,88.60
2023-04-11T05:54:38.673Z,90.13
2023-04-11T05:57:08.166Z,80.91
2023-04-11T05:59:36.256Z,84.40
2023-04-11T06:02:04.387Z,82.74
2023-04-11T06:04:33.264Z,81.00
2023-04-11T06:07:02.623Z,80.10
2023-04-11T06:09:33.490Z,79.62
2023-04-11T06:12:02.090Z,80.56
2023-04-11T06:14:32.287Z,81.33
2023-04-11T06:17:00.890Z,84.22
2023-04-11T06:19:28.872Z,79.64
2023-04-11T06:21:56.872Z,78.96
2023-04-11T06:24:37.060Z,78.96
2023-04-11T06:27:05.816Z,80.68
2023-04-11T06:29:35.212Z,80.25
2023-04-11T06:32:03.228Z,79.22
2023-04-11T06:34:31.293Z,81.75
2023-04-11T06:36:59.346Z,80.30
2023-04-11T06:39:27.473Z,79.96
2023-04-11T06:41:56.553Z,79.11
2023-04-11T06:44:24.594Z,80.42
2023-04-11T06:46:54.067Z,79.50
2023-04-11T06:49:22.181Z,76.00
2023-04-11T06:51:50.581Z,79.46
2023-04-11T06:54:19.253Z,79.49
2023-04-11T06:56:47.434Z,79.58
2023-04-11T06:59:15.793Z,77.97
2023-04-11T07:01:43.748Z,77.53
2023-04-11T07:04:13.494Z,78.78
2023-04-11T07:06:41.710Z,80.33
2023-04-11T07:09:11.026Z,79.14
2023-04-11T07:11:39.563Z,78.75
2023-04-11T07:14:08.144Z,80.27
2023-04-11T07:16:36.812Z,79.70
2023-04-11T07:19:05.035Z,80.41
2023-04-11T07:21:34.793Z,79.01
2023-04-11T07:24:03.105Z,79.62
2023-04-11T07:26:32.846Z,76.69
2023-04-11T07:29:01.048Z,77.02
2023-04-11T07:31:29.104Z,76.38
2023-04-11T07:33:57.416Z,77.29
2023-04-11T07:36:26.722Z,74.91
2023-04-11T07:38:56.192Z,75.45
2023-04-11T07:41:24.262Z,74.33
2023-04-11T07:43:52.250Z,75.76
2023-04-11T07:46:20.178Z,78.19
2023-04-11T07:48:48.572Z,75.96
2023-04-11T07:51:17.042Z,77.64
2023-04-11T07:53:45.088Z,76.55
2023-04-11T07:56:16.053Z,76.30
2023-04-11T07:58:44.107Z,77.16
2023-04-11T08:01:21.485Z,77.35
2023-04-11T08:03:49.603Z,77.11
2023-04-11T08:06:17.694Z,77.63
2023-04-11T08:08:46.020Z,75.87
2023-04-11T08:11:15.630Z,76.25
2023-04-11T08:13:43.655Z,72.55
2023-04-11T08:16:15.145Z,75.74
2023-04-11T08:18:45.719Z,76.58
2023-04-11T08:21:14.070Z,74.45
2023-04-11T08:23:42.800Z,73.58
2023-04-11T08:26:12.891Z,74.61
2023-04-11T08:28:43.580Z,74.65
2023-04-11T08:31:13.393Z,71.12
2023-04-11T08:33:42.324Z,71.45
2023-04-11T08:36:11.508Z,69.49
2023-04-11T08:38:40.456Z,70.03
2023-04-11T08:41:09.270Z,68.36
2023-04-11T08:43:37.966Z,66.28
2023-04-11T08:46:08.940Z,68.13
2023-04-11T08:48:37.043Z,69.44
2023-04-11T08:51:05.738Z,68.41
2023-04-11T08:53:37.147Z,68.88
2023-04-11T08:56:06.777Z,69.35
2023-04-11T08:58:35.087Z,72.41
2023-04-11T09:01:25.844Z,68.32
2023-04-11T09:03:53.848Z,66.73
2023-04-11T09:06:21.961Z,69.62
2023-04-11T09:08:50.408Z,70.22
2023-04-11T09:11:19.214Z,68.56
2023-04-11T09:13:47.118Z,68.95
2023-04-11T09:16:17.103Z,70.28
2023-04-11T09:18:46.639Z,69.04
2023-04-11T09:21:16.225Z,70.57
2023-04-11T09:23:44.972Z,69.97
2023-04-11T09:26:14.079Z,67.96
2023-04-11T09:28:43.309Z,74.84
2023-04-11T09:31:13.172Z,75.13
2023-04-11T09:33:53.734Z,76.22
2023-04-11T09:36:23.449Z,79.48
2023-04-11T09:38:51.803Z,79.73
2023-04-11T09:41:30.983Z,81.28
2023-04-11T09:43:59.193Z,80.90
2023-04-11T09:46:27.376Z,79.11
2023-04-11T09:48:57.884Z,78.98
2023-04-11T09:53:58.364Z,62.03
2023-04-11T09:56:27.389Z,61.89
2023-04-11T09:58:58.176Z,56.96
2023-04-11T10:01:27.525Z,57.32
2023-04-11T10:03:58.536Z,61.99
2023-04-11T10:06:34.439Z,60.52
2023-04-11T10:09:09.808Z,58.69
2023-04-11T10:11:38.200Z,55.85
2023-04-11T10:14:06.182Z,57.13
2023-04-11T10:16:34.670Z,56.92
2023-04-11T10:19:27.175Z,56.56
2023-04-11T10:21:55.159Z,57.55
2023-04-11T10:24:23.334Z,54.24
2023-04-11T10:26:53.543Z,51.77
2023-04-11T10:29:51.551Z,53.37
2023-04-11T10:32:22.321Z,53.58
2023-04-11T10:35:32.973Z,52.91
2023-04-11T10:38:02.356Z,51.32
2023-04-11T10:40:30.325Z,52.36
2023-04-11T10:42:58.634Z,51.65
2023-04-11T10:45:28.057Z,53.10
2023-04-11T10:48:11.745Z,55.19
2023-04-11T10:50:42.965Z,54.74
2023-04-11T10:53:36.574Z,53.44
2023-04-11T10:56:04.972Z,50.81
2023-04-11T10:58:37.910Z,53.59
2023-04-11T11:01:37.171Z,52.97
2023-04-11T11:04:11.186Z,57.30
2023-04-11T11:06:50.803Z,60.20
2023-04-11T11:09:28.431Z,62.79
2023-04-11T11:12:07.455Z,62.75
2023-04-11T11:14:35.575Z,63.12
2023-04-11T11:17:04.391Z,58.52
2023-04-11T11:19:32.780Z,60.37
2023-04-11T11:22:03.667Z,63.44
2023-04-11T11:24:33.377Z,67.56
2023-04-11T11:27:01.428Z,70.76
2023-04-11T11:29:34.062Z,73.34
2023-04-11T11:32:04.007Z,75.95
2023-04-11T11:34:33.830Z,77.83
2023-04-11T11:37:05.487Z,78.69
2023-04-11T11:39:35.940Z,83.24
2023-04-11T11:42:04.567Z,81.04
2023-04-11T11:44:32.904Z,80.75
2023-04-11T11:47:05.222Z,81.90
2023-04-11T11:49:47.113Z,78.55
2023-04-11T11:52:32.825Z,77.42
2023-04-11T11:55:03.361Z,78.50
2023-04-11T11:57:31.438Z,80.44
2023-04-11T12:00:01.913Z,78.77
2023-04-11T12:02:29.941Z,80.49
2023-04-11T12:05:00.063Z,83.54
2023-04-11T12:07:33.417Z,86.39
2023-04-11T12:10:03.263Z,88.68
2023-04-11T12:12:36.276Z,91.39
2023-04-11T12:15:04.821Z,93.69
2023-04-11T12:17:37.807Z,95.74
2023-04-11T12:20:08.067Z,98.23
2023-04-11T12:22:36.592Z,98.81
2023-04-11T12:25:12.000Z,98.90
2023-04-11T12:27:40.780Z,100.00
2023-04-11T12:30:10.066Z,100.00
2023-04-11T12:32:38.188Z,100.00
2023-04-11T12:35:07.638Z,100.00
2023-04-11T12:37:36.408Z,99.22
2023-04-11T12:40:09.360Z,100.00
2023-04-11T12:42:49.462Z,100.00
2023-04-11T12:45:23.822Z,100.00
2023-04-11T12:47:51.809Z,100.00
2023-04-11T12:50:19.820Z,100.00
2023-04-11T12:52:48.761Z,100.00
2023-04-11T12:55:16.746Z,100.00
2023-04-11T12:57:46.085Z,100.00
2023-04-11T13:00:16.697Z,100.00
2023-04-11T13:02:45.584Z,100.00
2023-04-11T13:05:15.689Z,100.00
2023-04-11T13:07:44.971Z,100.00
2023-04-11T13:10:14.276Z,100.00
2023-04-11T13:12:44.867Z,100.00
2023-04-11T13:15:16.290Z,100.00
2023-04-11T13:17:44.512Z,100.00
2023-04-11T13:20:13.811Z,100.00
2023-04-11T13:22:43.329Z,100.00
2023-04-11T13:25:12.275Z,100.00
2023-04-11T13:27:40.714Z,100.00
2023-04-11T13:30:10.548Z,100.00
2023-04-11T13:32:40.031Z,100.00
2023-04-11T13:35:09.117Z,100.00
2023-04-11T13:37:37.093Z,100.00
2023-04-11T13:40:08.437Z,100.00
2023-04-11T13:42:36.634Z,100.00
2023-04-11T13:45:05.041Z,100.00
2023-04-11T13:47:33.808Z,100.00
2023-04-11T13:50:05.290Z,100.00
2023-04-11T13:52:33.350Z,100.00
2023-04-11T13:55:01.334Z,100.00
2023-04-11T13:57:29.449Z,100.00
2023-04-11T13:59:57.384Z,100.00
2023-04-11T14:02:25.458Z,100.00
2023-04-11T14:04:53.656Z,100.00
2023-04-11T14:07:22.946Z,100.00
2023-04-11T14:09:50.995Z,100.00
2023-04-11T14:12:19.234Z,100.00
2023-04-11T14:14:47.201Z,100.00
2023-04-11T14:17:15.129Z,99.15
2023-04-11T14:19:43.196Z,98.55
2023-04-11T14:22:11.366Z,99.88
2023-04-11T14:24:40.765Z,100.00
2023-04-11T14:27:08.677Z,100.00
2023-04-11T14:29:37.616Z,100.00
2023-04-11T14:32:07.166Z,100.00
2023-04-11T14:34:35.169Z,100.00
2023-04-11T14:37:03.149Z,100.00
2023-04-11T14:39:31.707Z,100.00
2023-04-11T14:42:02.101Z,100.00
2023-04-11T14:44:30.488Z,100.00
2023-04-11T14:46:58.436Z,100.00
2023-04-11T14:49:26.639Z,100.00
2023-04-11T14:51:54.773Z,100.00
2023-04-11T14:54:24.175Z,100.00
2023-04-11T14:56:52.440Z,100.00
2023-04-11T14:59:22.152Z,100.00
2023-04-11T15:01:50.098Z,100.00
2023-04-11T15:04:18.243Z,100.00
2023-04-11T15:06:46.570Z,100.00
2023-04-11T15:09:19.867Z,100.00
2023-04-11T15:11:47.796Z,100.00
2023-04-11T15:14:16.105Z,100.00
2023-04-11T15:16:45.487Z,100.00
2023-04-11T15:19:13.376Z,100.00
2023-04-11T15:21:41.264Z,100.00
2023-04-11T15:24:09.208Z,100.00
2023-04-11T15:26:37.146Z,100.00
2023-04-11T15:29:05.071Z,100.00
2023-04-11T15:31:33.251Z,100.00
2023-04-11T15:34:04.120Z,100.00
2023-04-11T15:36:32.364Z,100.00
2023-04-11T15:39:00.765Z,100.00
2023-04-11T15:41:28.699Z,100.00
2023-04-11T15:43:56.707Z,100.00
2023-04-11T15:46:27.248Z,100.00
2023-04-11T15:48:55.197Z,100.00
2023-04-11T15:51:24.669Z,100.00
2023-04-11T15:53:52.925Z,100.00
2023-04-11T15:56:20.823Z,100.00
2023-04-11T15:58:49.822Z,100.00
2023-04-11T16:01:22.918Z,100.00
2023-04-11T16:03:51.648Z,100.00
2023-04-11T16:06:20.082Z,100.00
2023-04-11T16:08:49.410Z,100.00
2023-04-11T16:11:17.342Z,100.00
2023-04-11T16:13:45.375Z,100.00
2023-04-11T16:16:13.348Z,100.00
2023-04-11T16:18:41.657Z,100.00
2023-04-11T16:21:13.519Z,100.00
2023-04-11T16:23:41.534Z,100.00
2023-04-11T16:26:11.269Z,100.00
2023-04-11T16:28:39.266Z,100.00
2023-04-11T16:31:07.971Z,100.00
2023-04-11T16:33:35.914Z,100.00
2023-04-11T16:36:03.973Z,100.00
2023-04-11T16:38:32.258Z,100.00
2023-04-11T16:41:01.442Z,100.00
2023-04-11T16:43:30.788Z,100.00
2023-04-11T16:45:59.062Z,100.00
2023-04-11T16:48:27.329Z,100.00
2023-04-11T16:50:55.278Z,100.00
2023-04-11T16:53:23.196Z,100.00
2023-04-11T16:55:52.698Z,100.00
2023-04-11T16:58:20.662Z,100.00
2023-04-11T17:00:51.251Z,100.00
2023-04-11T17:03:19.858Z,100.00
2023-04-11T17:05:47.864Z,100.00
2023-04-11T17:08:15.921Z,100.00
2023-04-11T17:10:44.211Z,100.00
2023-04-11T17:13:12.860Z,100.00
2023-04-11T17:15:40.993Z,100.00
2023-04-11T17:18:10.468Z,100.00
2023-04-11T17:20:38.384Z,100.00
2023-04-11T17:23:06.399Z,100.00
2023-04-11T17:25:34.313Z,100.00
2023-04-11T17:28:02.440Z,100.00
2023-04-11T17:30:32.147Z,100.00
2023-04-11T17:33:00.386Z,100.00
2023-04-11T17:35:30.157Z,100.00
2023-04-11T17:37:58.040Z,100.00
2023-04-11T17:40:26.722Z,100.00
2023-04-11T17:42:56.906Z,100.00
2023-04-11T17:45:24.932Z,100.00
2023-04-11T17:47:52.899Z,100.00
2023-04-11T17:50:21.345Z,100.00
2023-04-11T17:52:51.246Z,100.00
2023-04-11T17:55:20.903Z,100.00
2023-04-11T17:57:49.869Z,100.00
2023-04-11T18:00:23.278Z,100.00
2023-04-11T18:02:54.844Z,100.00
2023-04-11T18:05:26.125Z,100.00
2023-04-11T18:07:57.609Z,100.00
2023-04-11T18:10:27.258Z,100.00
2023-04-11T18:12:57.557Z,100.00
2023-04-11T18:15:27.323Z,100.00
2023-04-11T18:17:55.707Z,100.00
2023-04-11T18:20:24.127Z,100.00
2023-04-11T18:22:54.905Z,100.00
2023-04-11T18:25:24.532Z,100.00
2023-04-11T18:27:52.476Z,100.00
2023-04-11T18:30:20.825Z,100.00
2023-04-11T18:32:51.001Z,100.00
2023-04-11T18:35:19.534Z,100.00
2023-04-11T18:37:47.628Z,100.00
2023-04-11T18:40:16.775Z,100.00
2023-04-11T18:42:47.964Z,100.00
2023-04-11T18:45:18.084Z,100.00
2023-04-11T18:47:46.546Z,100.00
2023-04-11T18:50:15.044Z,100.00
2023-04-11T18:52:44.898Z,100.00
2023-04-11T18:55:13.382Z,100.00
2023-04-11T18:57:43.532Z,100.00
2023-04-11T19:00:18.543Z,100.00
2023-04-11T19:02:47.811Z,100.00
2023-04-11T19:05:17.036Z,100.00
2023-04-11T19:07:45.932Z,100.00
2023-04-11T19:10:14.267Z,100.00
2023-04-11T19:12:42.470Z,100.00
2023-04-11T19:15:11.749Z,100.00
2023-04-11T19:17:41.371Z,100.00
2023-04-11T19:20:13.224Z,100.00
2023-04-11T19:22:43.058Z,100.00
2023-04-11T19:25:14.723Z,100.00
2023-04-11T19:27:42.865Z,100.00
2023-04-11T19:30:13.864Z,100.00
2023-04-11T19:32:46.101Z,100.00
2023-04-11T19:35:15.056Z,100.00
2023-04-11T19:37:43.121Z,100.00
2023-04-11T19:40:12.469Z,100.00
2023-04-11T19:42:40.622Z,100.00
2023-04-11T19:45:11.573Z,100.00
2023-04-11T19:47:41.028Z,100.00
2023-04-11T19:50:13.487Z,100.00
2023-04-11T19:52:42.318Z,100.00
2023-04-11T19:55:11.475Z,100.00
2023-04-11T19:57:40.379Z,100.00
2023-04-11T20:00:14.474Z,100.00
2023-04-11T20:02:45.947Z,100.00
2023-04-11T20:05:18.785Z,100.00
2023-04-11T20:07:47.995Z,100.00
2023-04-11T20:10:17.372Z,100.00
2023-04-11T20:12:46.065Z,100.00
2023-04-11T20:15:15.130Z,100.00
2023-04-11T20:17:45.838Z,100.00
2023-04-11T20:20:15.761Z,100.00
2023-04-11T20:22:46.098Z,100.00
2023-04-11T20:25:14.428Z,100.00
2023-04-11T20:27:43.846Z,100.00
2023-04-11T20:30:13.355Z,100.00
2023-04-11T20:32:42.487Z,100.00
2023-04-11T20:35:12.208Z,100.00
2023-04-11T20:37:41.464Z,100.00
2023-04-11T20:40:13.226Z,100.00
2023-04-11T20:42:42.776Z,100.00
2023-04-11T20:45:12.750Z,100.00
2023-04-11T20:47:41.710Z,100.00
2023-04-11T20:50:13.896Z,100.00
2023-04-11T20:52:43.418Z,100.00
2023-04-11T20:55:14.496Z,100.00
2023-04-11T20:57:43.116Z,100.00
2023-04-11T21:00:14.184Z,100.00
2023-04-11T21:02:44.255Z,100.00
2023-04-11T21:05:13.287Z,100.00
2023-04-11T21:07:43.345Z,100.00
2023-04-11T21:10:13.262Z,100.00
2023-04-11T21:12:42.406Z,100.00
2023-04-11T21:15:11.976Z,100.00
2023-04-11T21:17:40.906Z,100.00
2023-04-11T21:20:18.232Z,100.00
2023-04-11T21:22:47.951Z,100.00
2023-04-11T21:25:17.989Z,100.00
2023-04-11T21:27:46.381Z,100.00
2023-04-11T21:30:15.236Z,100.00
2023-04-11T21:32:43.844Z,100.00
2023-04-11T21:35:12.897Z,100.00
2023-04-11T21:37:41.176Z,100.00
2023-04-11T21:40:10.112Z,100.00
2023-04-11T21:42:39.663Z,100.00
2023-04-11T21:45:09.530Z,100.00
2023-04-11T21:47:37.554Z,100.00
2023-04-11T21:50:06.046Z,100.00
2023-04-11T21:52:34.075Z,100.00
2023-04-11T21:55:02.103Z,100.00
2023-04-11T21:57:32.913Z,100.00
2023-04-11T22:00:02.433Z,100.00
2023-04-11T22:02:30.950Z,100.00
2023-04-11T22:05:06.211Z,100.00
2023-04-11T22:07:39.037Z,100.00
2023-04-11T22:10:10.593Z,100.00
2023-04-11T22:12:39.282Z,100.00
2023-04-11T22:15:12.671Z,100.00
2023-04-11T22:17:42.333Z,100.00
2023-04-11T22:20:11.538Z,100.00
2023-04-11T22:22:39.581Z,100.00
2023-04-11T22:25:10.013Z,100.00
2023-04-11T22:27:38.547Z,100.00
2023-04-11T22:30:09.883Z,100.00
2023-04-11T22:32:38.424Z,100.00
2023-04-11T22:35:08.327Z,100.00
2023-04-11T22:37:36.386Z,100.00
2023-04-11T22:40:06.125Z,100.00
2023-04-11T22:42:34.099Z,100.00
2023-04-11T22:45:02.082Z,100.00
2023-04-11T22:47:34.324Z,100.00
2023-04-11T22:50:03.800Z,100.00
2023-04-11T22:52:31.796Z,100.00
2023-04-11T22:54:59.734Z,100.00
2023-04-11T22:57:27.651Z,100.00
2023-04-11T22:59:55.701Z,100.00
2023-04-11T23:02:25.365Z,100.00
2023-04-11T23:04:54.851Z,100.00
2023-04-11T23:07:25.237Z,100.00
2023-04-11T23:09:53.737Z,100.00
2023-04-11T23:12:23.252Z,100.00
2023-04-11T23:14:53.250Z,100.00
2023-04-11T23:17:21.478Z,100.00
2023-04-11T23:19:49.624Z,100.00
2023-04-11T23:22:19.585Z,100.00
2023-04-11T23:24:47.892Z,100.00
2023-04-11T23:27:17.211Z,100.00
2023-04-11T23:29:50.045Z,100.00
2023-04-11T23:32:18.978Z,100.00
2023-04-11T23:34:47.361Z,100.00
2023-04-11T23:37:16.670Z,100.00
2023-04-11T23:39:46.298Z,100.00
2023-04-11T23:42:14.779Z,100.00
2023-04-11T23:44:42.860Z,100.00
2023-04-11T23:47:10.912Z,100.00
2023-04-11T23:49:38.983Z,100.00
2023-04-11T23:52:07.711Z,100.00
2023-04-11T23:54:36.658Z,100.00
2023-04-11T23:57:06.384Z,100.00
2023-04-11T23:59:34.697Z,100.00
